Flight Track Log - Related Links

Times and Time Zones

All times are in EDT time to prevent confusion due to time zone crossing. See the TYR919 flight status page for this flight to view local times or setup timezone preferences in your user account.

Time Position Orientation Groundspeed Altitude Reporting Facility
EDT Latitude Longitude Course Direction KTS MPH feet Rate Location/Type
Sun 04:06:00 PM 48.0793 16.1552 264° West  Level Estimated
Sun 04:07:00 PM 48.0686 16.0171 263° West  Level Estimated
Sun 04:08:00 PM 48.0578 15.8791 263° West  Level Estimated
Sun 04:09:00 PM 48.0468 15.7412 263° West  Level Estimated
Sun 04:10:00 PM 48.0356 15.6033 263° West  Level Estimated
Sun 04:11:00 PM 48.0243 15.4655 263° West  Level Estimated
Sun 04:12:00 PM 48.0128 15.3277 263° West  Level Estimated
Sun 04:13:00 PM 48.0012 15.1900 263° West  Level Estimated
Sun 04:14:00 PM 47.9893 15.0524 263° West  Level Estimated
Sun 04:15:00 PM 47.9774 14.9148 263° West  Level Estimated
Sun 04:16:00 PM 47.9652 14.7773 263° West  Level Estimated
Sun 04:17:00 PM 47.9529 14.6398 262° West  Level Estimated
Sun 04:18:00 PM 47.9404 14.5025 262° West  Level Estimated
Sun 04:19:00 PM 47.9278 14.3652 262° West  Level Estimated
Sun 04:20:00 PM 47.9150 14.2279 262° West  Level Estimated
Sun 04:21:00 PM 47.9020 14.0907 262° West  Level Estimated
Sun 04:22:00 PM 47.8889 13.9536 262° West  Level Estimated
Sun 04:23:00 PM 47.8756 13.8166 262° West  Level Estimated
Sun 04:24:00 PM 47.8621 13.6796 262° West  Level Estimated
Sun 04:25:00 PM 47.8485 13.5427 262° West  Level Estimated
Sun 04:26:00 PM 47.8347 13.4059 262° West  Level Estimated
Sun 04:27:00 PM 47.8208 13.2691 261° West  Level Estimated
Sun 04:28:00 PM 47.8067 13.1324 261° West  Level Estimated
Sun 04:29:00 PM 47.7933 13.0043 261° West  Level Estimated
Sun 04:30:00 PM 47.7933 13.0043 27° Northeast  Level Estimated
Sun 04:31:00 PM 47.7933 13.0043 27° Northeast  Level Estimated
Sun 04:32:00 PM 47.7933 13.0043 27° Northeast  Level Estimated
Sun 04:33:00 PM 47.7933 13.0043 27° Northeast  Level Estimated
Sun 04:34:00 PM 47.7933 13.0043 27° Northeast  Level Estimated
Sun 04:35:00 PM 47.7933 13.0043 27° Northeast  Level Estimated

Login

Don't have an account? Register now (free) for customized features, flight alerts, and more!